Time;durP1;ratioP1;P1;durP2;ratioP2;P2;SDS_P1;SDS_P2;PMS_P1;PMS_P2;Temp;Humidity;BMP_temperature;BMP_pressure;BME280_temperature;BME280_humidity;BME280_pressure;Samples;Min_cycle;Max_cycle;Signal;HPM_P1;HPM_P2
2022/08/07 00:00:47;;;;;;;16.08;9.48;;;;;;;;;;5040062;28;20045;-71
2022/08/07 00:03:12;;;;;;;10.55;8.50;;;;;;;;;;5040951;28;20048;-71
2022/08/07 00:05:37;;;;;;;12.75;8.98;;;;;;;;;;5040351;28;20114;-71
2022/08/07 00:08:04;;;;;;;10.45;8.32;;;;;;;;;;5039474;28;20098;-71
2022/08/07 00:10:30;;;;;;;13.32;8.02;;;;;;;;;;5040610;28;20131;-71
2022/08/07 00:12:57;;;;;;;14.68;8.65;;;;;;;;;;5040964;28;20079;-71
2022/08/07 00:15:24;;;;;;;11.73;8.05;;;;;;;;;;5040784;28;20056;-71
2022/08/07 00:17:50;;;;;;;12.68;7.82;;;;;;;;;;5039190;28;20051;-74
2022/08/07 00:20:15;;;;;;;11.68;7.70;;;;;;;;;;5040851;28;20048;-71
2022/08/07 00:22:41;;;;;;;10.48;7.40;;;;;;;;;;5040449;28;20049;-71
2022/08/07 00:25:07;;;;;;;9.57;7.00;;;;;;;;;;5040563;28;20066;-71
2022/08/07 00:27:34;;;;;;;10.52;6.75;;;;;;;;;;5040366;28;20056;-71
2022/08/07 00:30:01;;;;;;;15.45;7.80;;;;;;;;;;5037727;28;20048;-70
2022/08/07 00:32:27;;;;;;;12.85;7.82;;;;;;;;;;5040322;28;20041;-71
2022/08/07 00:34:52;;;;;;;9.88;7.00;;;;;;;;;;5038910;28;20041;-71
2022/08/07 00:37:18;;;;;;;9.63;6.45;;;;;;;;;;5031415;28;20060;-71
2022/08/07 00:39:44;;;;;;;9.50;6.28;;;;;;;;;;5039818;28;20056;-71
2022/08/07 00:42:09;;;;;;;8.57;6.82;;;;;;;;;;5040358;28;20060;-71
2022/08/07 00:44:35;;;;;;;15.95;6.47;;;;;;;;;;5040637;28;20183;-70
2022/08/07 00:47:05;;;;;;;8.60;6.43;;;;;;;;;;5040459;28;20048;-70
2022/08/07 00:49:30;;;;;;;9.20;6.22;;;;;;;;;;5038994;28;20530;-71
2022/08/07 00:51:57;;;;;;;8.30;5.93;;;;;;;;;;5038666;28;20045;-70
2022/08/07 00:54:22;;;;;;;9.07;6.43;;;;;;;;;;5043535;28;20259;-70
2022/08/07 00:56:49;;;;;;;7.68;6.13;;;;;;;;;;5043324;28;20768;-70
2022/08/07 00:59:14;;;;;;;9.05;6.13;;;;;;;;;;5042539;28;20527;-71
2022/08/07 01:01:40;;;;;;;9.93;6.40;;;;;;;;;;5043447;28;20155;-71
2022/08/07 01:04:07;;;;;;;9.90;6.55;;;;;;;;;;5042796;28;20119;-71
2022/08/07 01:06:33;;;;;;;8.52;6.32;;;;;;;;;;5042637;28;20072;-70
2022/08/07 01:09:00;;;;;;;9.48;6.18;;;;;;;;;;5044165;28;20527;-70
2022/08/07 01:11:27;;;;;;;7.95;5.88;;;;;;;;;;5042947;28;20052;-71
2022/08/07 01:13:52;;;;;;;6.70;5.80;;;;;;;;;;5042501;28;20037;-70
2022/08/07 01:16:18;;;;;;;7.25;5.43;;;;;;;;;;5042380;28;20059;-70
2022/08/07 01:18:44;;;;;;;7.40;5.50;;;;;;;;;;5043844;28;20112;-70
2022/08/07 01:21:11;;;;;;;7.50;5.13;;;;;;;;;;5042625;28;20053;-70
2022/08/07 01:23:40;;;;;;;9.85;5.85;;;;;;;;;;5041575;28;20049;-70
2022/08/07 01:26:11;;;;;;;9.00;5.50;;;;;;;;;;5042037;28;20067;-70
2022/08/07 01:28:41;;;;;;;7.78;5.57;;;;;;;;;;5043634;28;20127;-70
2022/08/07 01:31:08;;;;;;;9.70;5.38;;;;;;;;;;5042201;28;20098;-70
2022/08/07 01:33:35;;;;;;;6.32;5.10;;;;;;;;;;5042673;28;20055;-71
2022/08/07 01:36:01;;;;;;;6.57;5.47;;;;;;;;;;5041468;28;20178;-72
2022/08/07 01:38:29;;;;;;;12.10;6.25;;;;;;;;;;5032046;28;20102;-72
2022/08/07 01:41:04;;;;;;;11.40;5.78;;;;;;;;;;5042591;28;20041;-72
2022/08/07 01:43:31;;;;;;;10.52;5.90;;;;;;;;;;5042212;28;20160;-73
2022/08/07 01:45:57;;;;;;;6.60;5.70;;;;;;;;;;5024253;28;20053;-72
2022/08/07 01:48:23;;;;;;;8.10;5.50;;;;;;;;;;5043086;28;20154;-72
2022/08/07 01:50:53;;;;;;;10.48;5.93;;;;;;;;;;5042548;28;20423;-73
2022/08/07 01:53:21;;;;;;;7.75;5.28;;;;;;;;;;5042720;28;20041;-70
2022/08/07 01:55:53;;;;;;;7.63;5.90;;;;;;;;;;5042171;28;20422;-72
2022/08/07 01:58:21;;;;;;;6.30;4.32;;;;;;;;;;5037843;28;20049;-72
2022/08/07 02:00:56;;;;;;;8.60;5.25;;;;;;;;;;5041913;28;20110;-72
2022/08/07 02:03:23;;;;;;;8.65;4.75;;;;;;;;;;5041487;28;20380;-69
2022/08/07 02:06:02;;;;;;;7.72;4.25;;;;;;;;;;5043218;28;20479;-71
2022/08/07 02:08:39;;;;;;;4.47;3.92;;;;;;;;;;5040336;28;20088;-72
2022/08/07 02:11:05;;;;;;;8.63;4.60;;;;;;;;;;5042311;28;20052;-72
2022/08/07 02:13:33;;;;;;;7.57;4.55;;;;;;;;;;5042193;28;20490;-72
2022/08/07 02:16:01;;;;;;;5.20;4.40;;;;;;;;;;5041189;28;20112;-72
2022/08/07 02:18:29;;;;;;;4.72;4.18;;;;;;;;;;5040666;28;20970;-72
2022/08/07 02:20:57;;;;;;;5.18;3.90;;;;;;;;;;5058109;28;20056;-71
2022/08/07 02:23:24;;;;;;;5.57;3.88;;;;;;;;;;5041564;28;20065;-72
2022/08/07 02:25:52;;;;;;;6.30;3.70;;;;;;;;;;5041421;28;20635;-70
2022/08/07 02:28:19;;;;;;;3.95;3.50;;;;;;;;;;5040694;28;20059;-69
2022/08/07 02:30:46;;;;;;;3.95;3.20;;;;;;;;;;5040129;28;20483;-69
2022/08/07 02:33:15;;;;;;;5.00;3.00;;;;;;;;;;5025213;28;20044;-69
2022/08/07 02:35:44;;;;;;;6.25;3.45;;;;;;;;;;5041194;28;20044;-70
2022/08/07 02:38:13;;;;;;;3.60;3.30;;;;;;;;;;5040213;28;20418;-70
2022/08/07 02:40:39;;;;;;;4.50;3.28;;;;;;;;;;5040074;28;20045;-69
2022/08/07 02:43:06;;;;;;;4.45;3.05;;;;;;;;;;5041257;28;20118;-69
2022/08/07 02:45:33;;;;;;;5.97;3.17;;;;;;;;;;5040227;28;20053;-69
2022/08/07 02:47:58;;;;;;;3.50;3.17;;;;;;;;;;5040434;28;20037;-70
2022/08/07 02:50:25;;;;;;;6.30;2.92;;;;;;;;;;5041154;28;20071;-69
2022/08/07 02:52:58;;;;;;;5.07;3.17;;;;;;;;;;5023885;28;20044;-69
2022/08/07 02:55:30;;;;;;;3.85;3.53;;;;;;;;;;5041352;28;20558;-70
2022/08/07 02:57:57;;;;;;;;;;;;;;;;;;5041083;28;20045;-72
2022/08/07 03:00:25;;;;;;;3.03;2.70;;;;;;;;;;5040512;28;20012;-70
2022/08/07 03:02:52;;;;;;;4.45;3.13;;;;;;;;;;5039878;28;20045;-70
2022/08/07 03:05:19;;;;;;;3.63;3.10;;;;;;;;;;5041627;28;20925;-69
2022/08/07 03:07:46;;;;;;;3.65;2.92;;;;;;;;;;5042744;28;20085;-70
2022/08/07 03:10:15;;;;;;;3.05;2.83;;;;;;;;;;5040214;28;20523;-70
2022/08/07 03:12:42;;;;;;;3.60;3.20;;;;;;;;;;5040727;28;20051;-69
2022/08/07 03:15:11;;;;;;;3.63;3.25;;;;;;;;;;5040089;28;20156;-71
2022/08/07 03:17:39;;;;;;;3.53;2.90;;;;;;;;;;5040335;28;20132;-70
2022/08/07 03:20:07;;;;;;;3.30;3.00;;;;;;;;;;5039402;28;20128;-70
2022/08/07 03:22:33;;;;;;;5.38;3.20;;;;;;;;;;5039999;28;20045;-72
2022/08/07 03:24:59;;;;;;;6.28;3.75;;;;;;;;;;5039371;28;20107;-69
2022/08/07 03:27:27;;;;;;;4.10;3.15;;;;;;;;;;5040562;28;20155;-70
2022/08/07 03:29:55;;;;;;;4.07;3.13;;;;;;;;;;5022273;28;20569;-70
2022/08/07 03:32:34;;;;;;;5.57;3.47;;;;;;;;;;5039852;28;20041;-71
2022/08/07 03:35:05;;;;;;;4.50;3.45;;;;;;;;;;5039816;28;20095;-70
2022/08/07 03:37:33;;;;;;;4.55;3.35;;;;;;;;;;5039628;28;20519;-69
2022/08/07 03:40:01;;;;;;;5.55;4.10;;;;;;;;;;5038816;28;20041;-70
2022/08/07 03:42:27;;;;;;;3.58;3.10;;;;;;;;;;5041266;28;20052;-70
2022/08/07 03:44:54;;;;;;;3.38;3.10;;;;;;;;;;5027383;28;20064;-70
2022/08/07 03:47:20;;;;;;;3.13;2.83;;;;;;;;;;5038080;28;20049;-70
2022/08/07 03:49:47;;;;;;;6.40;3.20;;;;;;;;;;5039052;28;20132;-70
2022/08/07 03:52:14;;;;;;;3.42;3.10;;;;;;;;;;5039666;28;20041;-70
2022/08/07 03:54:40;;;;;;;3.13;2.75;;;;;;;;;;5039927;28;20155;-70
2022/08/07 03:57:08;;;;;;;4.95;3.00;;;;;;;;;;5037988;28;20049;-70
2022/08/07 03:59:36;;;;;;;3.50;2.65;;;;;;;;;;5037889;28;20605;-69
2022/08/07 04:02:01;;;;;;;3.35;3.00;;;;;;;;;;5038643;28;20518;-70
2022/08/07 04:04:27;;;;;;;3.20;2.88;;;;;;;;;;5039297;28;20059;-69
2022/08/07 04:06:57;;;;;;;3.47;2.90;;;;;;;;;;5039362;28;20148;-70
2022/08/07 04:09:23;;;;;;;4.13;2.78;;;;;;;;;;5036443;28;20155;-69
2022/08/07 04:11:50;;;;;;;3.38;2.97;;;;;;;;;;5040304;28;20258;-70
2022/08/07 04:14:16;;;;;;;4.90;3.10;;;;;;;;;;5039121;28;20048;-69
2022/08/07 04:16:42;;;;;;;5.63;2.90;;;;;;;;;;5039008;28;20055;-70
2022/08/07 04:19:08;;;;;;;6.10;2.97;;;;;;;;;;5038459;28;20045;-69
2022/08/07 04:21:34;;;;;;;3.75;3.10;;;;;;;;;;5055365;28;20045;-70
2022/08/07 04:24:02;;;;;;;3.38;2.90;;;;;;;;;;5038833;28;20494;-70
2022/08/07 04:26:28;;;;;;;4.75;3.17;;;;;;;;;;5038854;28;20049;-70
2022/08/07 04:28:53;;;;;;;3.15;2.80;;;;;;;;;;5038913;28;20456;-70
2022/08/07 04:31:23;;;;;;;2.97;2.67;;;;;;;;;;5039496;28;20040;-69
2022/08/07 04:33:49;;;;;;;4.85;3.00;;;;;;;;;;5040957;28;20045;-69
2022/08/07 04:36:14;;;;;;;3.15;2.90;;;;;;;;;;5038420;28;20048;-69
2022/08/07 04:38:41;;;;;;;2.70;2.50;;;;;;;;;;5038821;28;20487;-70
2022/08/07 04:41:08;;;;;;;4.65;2.28;;;;;;;;;;5038165;28;20045;-70
2022/08/07 04:43:42;;;;;;;3.90;2.45;;;;;;;;;;5055467;28;20068;-70
2022/08/07 04:46:29;;;;;;;3.30;2.45;;;;;;;;;;5038152;28;20059;-70
2022/08/07 04:49:04;;;;;;;3.40;3.00;;;;;;;;;;5022111;28;20154;-70
2022/08/07 04:51:44;;;;;;;3.35;2.28;;;;;;;;;;5038179;28;20049;-70
2022/08/07 04:54:19;;;;;;;2.35;2.05;;;;;;;;;;5038310;28;20502;-71
2022/08/07 04:56:49;;;;;;;2.35;2.15;;;;;;;;;;5038636;28;20049;-70
2022/08/07 04:59:25;;;;;;;2.40;2.13;;;;;;;;;;5039860;28;20418;-70
2022/08/07 05:02:07;;;;;;;2.42;1.98;;;;;;;;;;5038524;28;20041;-70
2022/08/07 05:05:18;;;;;;;5.28;2.50;;;;;;;;;;5021974;28;20060;-69
2022/08/07 05:08:11;;;;;;;2.42;2.22;;;;;;;;;;4961687;28;20108;-69
2022/08/07 05:10:42;;;;;;;2.67;1.90;;;;;;;;;;5036911;28;21085;-70
2022/08/07 05:13:18;;;;;;;2.17;1.92;;;;;;;;;;5037062;28;20067;-70
2022/08/07 05:15:48;;;;;;;2.95;2.00;;;;;;;;;;5021221;28;20053;-71
2022/08/07 05:18:24;;;;;;;2.17;1.92;;;;;;;;;;5037182;28;20045;-71
2022/08/07 05:20:53;;;;;;;2.35;1.85;;;;;;;;;;5038056;28;20102;-70
2022/08/07 05:23:24;;;;;;;2.72;2.22;;;;;;;;;;5021867;28;20122;-70
2022/08/07 05:25:52;;;;;;;3.92;3.10;;;;;;;;;;5037717;28;20500;-70
2022/08/07 05:28:18;;;;;;;2.40;2.00;;;;;;;;;;5038509;28;20048;-70
2022/08/07 05:30:45;;;;;;;2.92;2.10;;;;;;;;;;5038963;28;20041;-70
2022/08/07 05:33:13;;;;;;;1.83;1.60;;;;;;;;;;5038530;28;20052;-70
2022/08/07 05:35:41;;;;;;;3.92;1.80;;;;;;;;;;5036968;28;20041;-70
2022/08/07 05:38:08;;;;;;;1.83;1.70;;;;;;;;;;5038041;28;20041;-70
2022/08/07 05:40:36;;;;;;;1.83;1.67;;;;;;;;;;5039914;28;20045;-69
2022/08/07 05:43:03;;;;;;;2.00;1.90;;;;;;;;;;5040868;28;20148;-70
2022/08/07 05:45:30;;;;;;;3.85;1.90;;;;;;;;;;5041676;28;20041;-69
2022/08/07 05:48:02;;;;;;;3.55;1.73;;;;;;;;;;5024797;28;20538;-70
2022/08/07 05:50:30;;;;;;;3.65;2.08;;;;;;;;;;5018931;28;21072;-69
2022/08/07 05:52:56;;;;;;;4.30;1.70;;;;;;;;;;5037276;28;20041;-70
2022/08/07 05:55:22;;;;;;;2.10;1.90;;;;;;;;;;5040885;28;20045;-70
2022/08/07 05:57:49;;;;;;;2.00;1.85;;;;;;;;;;5042456;28;20510;-69
2022/08/07 06:00:16;;;;;;;4.60;1.85;;;;;;;;;;5041270;28;20041;-70
2022/08/07 06:02:48;;;;;;;;;;;;;;;;;;5042406;28;20045;-69
2022/08/07 06:05:15;;;;;;;3.60;2.25;;;;;;;;;;5043214;28;19924;-70
2022/08/07 06:07:42;;;;;;;3.38;2.10;;;;;;;;;;5037546;28;20149;-70
2022/08/07 06:10:10;;;;;;;3.70;2.05;;;;;;;;;;5039286;28;20048;-70
2022/08/07 06:12:36;;;;;;;3.05;2.13;;;;;;;;;;5023127;28;20128;-70
2022/08/07 06:15:02;;;;;;;2.15;1.80;;;;;;;;;;5038745;28;20219;-70
2022/08/07 06:17:30;;;;;;;4.68;1.73;;;;;;;;;;5024889;28;20060;-70
2022/08/07 06:19:57;;;;;;;4.90;2.53;;;;;;;;;;5037169;28;20124;-70
2022/08/07 06:22:24;;;;;;;4.15;1.75;;;;;;;;;;5039201;28;20072;-70
2022/08/07 06:24:59;;;;;;;1.92;1.70;;;;;;;;;;5039763;28;20049;-70
2022/08/07 06:27:25;;;;;;;3.75;2.00;;;;;;;;;;5038230;28;20586;-69
2022/08/07 06:29:51;;;;;;;4.68;1.90;;;;;;;;;;5038244;28;20510;-70
2022/08/07 06:32:18;;;;;;;3.92;1.92;;;;;;;;;;5038367;28;20048;-69
2022/08/07 06:34:43;;;;;;;3.50;1.80;;;;;;;;;;5028222;28;20059;-71
2022/08/07 06:37:08;;;;;;;3.85;2.28;;;;;;;;;;5038069;28;20132;-72
2022/08/07 06:39:37;;;;;;;2.35;2.15;;;;;;;;;;5038429;28;20533;-72
2022/08/07 06:42:20;;;;;;;2.72;2.00;;;;;;;;;;5028527;28;20053;-72
2022/08/07 06:45:16;;;;;;;4.15;2.10;;;;;;;;;;5039537;28;20113;-71
2022/08/07 06:47:45;;;;;;;4.88;2.45;;;;;;;;;;5037643;28;20059;-71
2022/08/07 06:50:12;;;;;;;2.83;2.15;;;;;;;;;;5038211;28;20049;-73
2022/08/07 06:52:42;;;;;;;4.50;2.20;;;;;;;;;;5038620;28;20479;-71
2022/08/07 06:55:18;;;;;;;2.67;2.20;;;;;;;;;;5023587;28;20159;-69
2022/08/07 06:57:44;;;;;;;5.28;2.17;;;;;;;;;;5021156;28;20048;-70
2022/08/07 07:00:12;;;;;;;2.58;1.90;;;;;;;;;;5021530;28;20036;-72
2022/08/07 07:02:40;;;;;;;2.78;1.98;;;;;;;;;;5022926;28;20113;-72
2022/08/07 07:05:06;;;;;;;2.45;2.05;;;;;;;;;;5038510;28;20049;-73
2022/08/07 07:07:32;;;;;;;2.60;2.30;;;;;;;;;;5040965;28;20068;-70
2022/08/07 07:10:00;;;;;;;6.43;2.17;;;;;;;;;;5038228;28;20040;-71
2022/08/07 07:12:37;;;;;;;2.75;2.00;;;;;;;;;;5038410;28;20063;-71
2022/08/07 07:15:12;;;;;;;2.50;2.13;;;;;;;;;;5042211;28;20045;-72
2022/08/07 07:17:55;;;;;;;4.43;1.92;;;;;;;;;;5041541;28;20057;-71
2022/08/07 07:20:26;;;;;;;4.43;1.90;;;;;;;;;;5040699;28;20053;-70
2022/08/07 07:22:53;;;;;;;3.05;2.20;;;;;;;;;;5042191;28;20143;-70
2022/08/07 07:25:19;;;;;;;2.78;1.70;;;;;;;;;;5040340;28;20087;-70
2022/08/07 07:28:17;;;;;;;1.80;1.65;;;;;;;;;;5041669;28;20084;-69
2022/08/07 07:30:50;;;;;;;3.78;1.58;;;;;;;;;;5002337;28;20122;-69
2022/08/07 07:33:18;;;;;;;1.98;1.65;;;;;;;;;;5039698;28;20052;-69
2022/08/07 07:35:47;;;;;;;3.55;2.00;;;;;;;;;;5038827;28;20164;-70
2022/08/07 07:38:15;;;;;;;2.05;1.85;;;;;;;;;;5039311;28;20107;-70
2022/08/07 07:40:41;;;;;;;2.03;1.92;;;;;;;;;;5038945;28;20479;-68
2022/08/07 07:43:09;;;;;;;7.30;1.67;;;;;;;;;;5040368;28;20068;-70
2022/08/07 07:45:37;;;;;;;2.20;2.00;;;;;;;;;;5040527;28;20873;-69
2022/08/07 07:48:04;;;;;;;2.13;1.73;;;;;;;;;;5039755;28;20088;-69
2022/08/07 07:50:31;;;;;;;1.58;1.48;;;;;;;;;;5039374;28;20194;-68
2022/08/07 07:52:57;;;;;;;1.83;1.73;;;;;;;;;;5040444;28;20045;-70
2022/08/07 07:55:25;;;;;;;4.68;1.80;;;;;;;;;;5037539;28;20045;-69
2022/08/07 07:57:51;;;;;;;3.80;1.60;;;;;;;;;;5038148;28;20895;-69
2022/08/07 08:00:17;;;;;;;4.30;1.77;;;;;;;;;;5038622;28;20131;-69
2022/08/07 08:02:46;;;;;;;3.08;1.75;;;;;;;;;;5039311;28;20105;-69
2022/08/07 08:05:14;;;;;;;1.67;1.58;;;;;;;;;;5040142;28;20406;-69
2022/08/07 08:07:41;;;;;;;1.75;1.58;;;;;;;;;;5040266;28;20465;-70
2022/08/07 08:10:08;;;;;;;1.67;1.58;;;;;;;;;;5039171;28;20041;-71
2022/08/07 08:12:34;;;;;;;3.20;1.70;;;;;;;;;;5040052;28;20605;-70
2022/08/07 08:15:00;;;;;;;3.85;2.10;;;;;;;;;;5039805;28;20045;-70
2022/08/07 08:17:27;;;;;;;5.50;1.80;;;;;;;;;;5039118;28;20045;-69
2022/08/07 08:20:04;;;;;;;3.08;1.48;;;;;;;;;;5038096;28;20071;-75
2022/08/07 08:28:04;;;;;;;1.60;1.50;;;;;;;;;;5038659;28;20060;-71
2022/08/07 08:30:32;;;;;;;5.25;2.13;;;;;;;;;;5037362;28;20080;-70
2022/08/07 08:33:00;;;;;;;2.55;1.80;;;;;;;;;;5038987;28;20080;-71
2022/08/07 08:35:27;;;;;;;1.83;1.73;;;;;;;;;;5038983;28;20045;-70
2022/08/07 08:37:58;;;;;;;2.95;1.63;;;;;;;;;;5039054;28;20044;-69
2022/08/07 08:40:34;;;;;;;2.10;1.75;;;;;;;;;;5037415;28;20612;-69
2022/08/07 08:43:22;;;;;;;4.78;2.15;;;;;;;;;;5039413;28;20147;-71
2022/08/07 08:46:06;;;;;;;1.67;1.58;;;;;;;;;;5039170;28;20227;-69
2022/08/07 08:48:42;;;;;;;1.80;1.58;;;;;;;;;;5037657;28;20602;-68
2022/08/07 08:51:34;;;;;;;1.92;1.65;;;;;;;;;;5038819;28;20047;-68
2022/08/07 08:54:27;;;;;;;4.40;1.83;;;;;;;;;;5036582;28;20099;-70
2022/08/07 08:56:55;;;;;;;4.00;1.75;;;;;;;;;;5040258;28;20453;-70
2022/08/07 08:59:49;;;;;;;3.90;1.50;;;;;;;;;;5040191;28;20493;-68
2022/08/07 09:02:30;;;;;;;2.50;1.70;;;;;;;;;;5031656;28;20057;-69
2022/08/07 09:05:11;;;;;;;1.60;1.50;;;;;;;;;;5039679;28;20052;-68
2022/08/07 09:07:45;;;;;;;2.22;1.60;;;;;;;;;;5041238;28;20518;-68
2022/08/07 09:10:19;;;;;;;4.28;1.75;;;;;;;;;;5040993;28;20529;-68
2022/08/07 09:12:53;;;;;;;2.50;1.58;;;;;;;;;;5042059;28;20049;-68
2022/08/07 09:15:36;;;;;;;3.30;1.75;;;;;;;;;;5045319;28;20041;-68
2022/08/07 09:18:20;;;;;;;3.13;1.73;;;;;;;;;;5045159;28;20052;-68
2022/08/07 09:20:51;;;;;;;2.13;1.73;;;;;;;;;;5044436;28;20057;-69
2022/08/07 09:23:31;;;;;;;2.80;1.60;;;;;;;;;;5045020;28;20411;-69
2022/08/07 09:26:32;;;;;;;5.93;1.50;;;;;;;;;;5043688;28;20045;-70
2022/08/07 09:29:34;;;;;;;1.67;1.55;;;;;;;;;;5024339;28;20184;-69
2022/08/07 09:31:59;;;;;;;1.98;1.77;;;;;;;;;;5042815;28;20044;-70
2022/08/07 09:34:37;;;;;;;2.03;1.52;;;;;;;;;;5044208;28;20110;-70
2022/08/07 09:37:15;;;;;;;4.75;1.70;;;;;;;;;;5042388;28;20068;-70
2022/08/07 09:40:18;;;;;;;4.80;1.70;;;;;;;;;;5040784;28;20048;-72
2022/08/07 09:43:01;;;;;;;2.85;1.83;;;;;;;;;;5040160;28;20053;-69
2022/08/07 09:45:41;;;;;;;4.47;1.77;;;;;;;;;;5040896;28;20053;-69
2022/08/07 09:48:18;;;;;;;2.08;1.80;;;;;;;;;;5041326;28;20061;-69
2022/08/07 09:50:54;;;;;;;3.15;1.77;;;;;;;;;;5042376;28;20053;-69
2022/08/07 09:53:23;;;;;;;2.53;1.55;;;;;;;;;;5042985;28;20098;-69
2022/08/07 09:55:57;;;;;;;1.60;1.50;;;;;;;;;;5042969;28;20048;-69
2022/08/07 09:59:01;;;;;;;1.60;1.50;;;;;;;;;;5042298;28;20052;-69
2022/08/07 10:01:42;;;;;;;4.07;1.90;;;;;;;;;;5042553;28;20048;-69
2022/08/07 10:04:38;;;;;;;2.40;1.70;;;;;;;;;;5041643;28;20051;-68
2022/08/07 10:07:41;;;;;;;3.78;1.67;;;;;;;;;;5044303;28;20057;-72
2022/08/07 10:10:28;;;;;;;4.03;1.70;;;;;;;;;;5042613;28;20051;-69
2022/08/07 10:13:15;;;;;;;2.10;1.90;;;;;;;;;;5042710;28;20131;-69
2022/08/07 10:15:55;;;;;;;3.97;1.70;;;;;;;;;;5044672;28;20064;-69
2022/08/07 10:18:39;;;;;;;2.42;1.60;;;;;;;;;;5044279;28;20092;-69
2022/08/07 10:21:26;;;;;;;2.53;1.88;;;;;;;;;;5038413;28;20049;-69
2022/08/07 10:24:00;;;;;;;3.38;2.33;;;;;;;;;;5042923;28;20076;-69
2022/08/07 10:26:49;;;;;;;2.33;1.80;;;;;;;;;;5040639;28;20144;-69
2022/08/07 10:29:21;;;;;;;4.43;1.90;;;;;;;;;;5041680;28;20559;-68
2022/08/07 10:31:46;;;;;;;;;;;;;;;;;;5041518;28;20519;-69
2022/08/07 10:34:32;;;;;;;1.98;1.88;;;;;;;;;;5041403;28;19921;-69
2022/08/07 10:37:25;;;;;;;2.00;1.80;;;;;;;;;;5041313;28;20549;-69
2022/08/07 10:40:24;;;;;;;1.92;1.83;;;;;;;;;;5040314;28;20236;-69
2022/08/07 10:43:08;;;;;;;4.43;1.90;;;;;;;;;;5026504;28;20053;-69
2022/08/07 10:45:41;;;;;;;2.10;1.77;;;;;;;;;;5040118;28;20413;-70
2022/08/07 10:48:40;;;;;;;2.90;1.80;;;;;;;;;;5037979;28;20148;-69
2022/08/07 10:51:36;;;;;;;2.97;2.00;;;;;;;;;;5039511;28;20049;-69
2022/08/07 10:54:22;;;;;;;2.70;1.90;;;;;;;;;;5040865;28;20515;-69
2022/08/07 10:57:07;;;;;;;2.65;1.77;;;;;;;;;;5039866;28;20399;-69
2022/08/07 10:59:49;;;;;;;2.65;1.90;;;;;;;;;;5039395;28;20045;-68
2022/08/07 11:02:24;;;;;;;5.10;2.25;;;;;;;;;;5040643;28;20417;-69
2022/08/07 11:04:58;;;;;;;3.03;1.92;;;;;;;;;;5041809;28;20122;-69
2022/08/07 11:07:45;;;;;;;2.92;1.65;;;;;;;;;;5057792;28;20052;-69
2022/08/07 11:10:17;;;;;;;1.50;1.40;;;;;;;;;;5041577;28;20534;-68
2022/08/07 11:13:23;;;;;;;2.85;1.60;;;;;;;;;;5040166;28;20045;-69
2022/08/07 11:15:53;;;;;;;4.25;1.90;;;;;;;;;;5019262;28;20040;-68
2022/08/07 11:18:27;;;;;;;2.22;1.90;;;;;;;;;;5041275;28;20537;-68
2022/08/07 11:21:05;;;;;;;1.92;1.60;;;;;;;;;;5040743;28;20044;-69
2022/08/07 11:23:53;;;;;;;4.13;1.42;;;;;;;;;;5041687;28;20056;-70
2022/08/07 11:26:31;;;;;;;1.58;1.33;;;;;;;;;;5039120;28;20149;-70
2022/08/07 11:29:11;;;;;;;1.50;1.40;;;;;;;;;;5039353;28;20041;-69
2022/08/07 11:31:47;;;;;;;1.55;1.40;;;;;;;;;;5038341;28;20047;-70
2022/08/07 11:34:19;;;;;;;4.25;1.40;;;;;;;;;;5040513;28;20095;-69
2022/08/07 11:37:17;;;;;;;3.55;1.40;;;;;;;;;;5040641;28;20072;-70
2022/08/07 11:40:04;;;;;;;6.47;1.67;;;;;;;;;;5025181;28;20129;-69
2022/08/07 11:42:54;;;;;;;1.67;1.58;;;;;;;;;;5040988;28;20041;-69
2022/08/07 11:45:36;;;;;;;1.92;1.50;;;;;;;;;;5040528;28;20511;-70
2022/08/07 11:48:01;;;;;;;;;;;;;;;;;;5040064;28;20048;-70
2022/08/07 11:50:33;;;;;;;3.67;1.30;;;;;;;;;;5040605;28;19924;-69
2022/08/07 11:53:33;;;;;;;2.72;1.50;;;;;;;;;;5040542;28;21094;-70
2022/08/07 11:56:20;;;;;;;2.75;1.83;;;;;;;;;;5054996;28;20048;-70
2022/08/07 11:58:54;;;;;;;1.45;1.35;;;;;;;;;;5040418;28;20048;-70
2022/08/07 12:01:38;;;;;;;2.75;1.48;;;;;;;;;;5038730;28;20140;-70
2022/08/07 12:04:20;;;;;;;2.17;1.60;;;;;;;;;;5039516;28;20079;-68
2022/08/07 12:06:55;;;;;;;1.70;1.60;;;;;;;;;;5038787;28;20462;-70
2022/08/07 12:09:26;;;;;;;1.75;1.65;;;;;;;;;;5040755;28;20459;-70
2022/08/07 12:12:01;;;;;;;2.30;1.45;;;;;;;;;;5037740;28;20040;-70
2022/08/07 12:14:30;;;;;;;2.72;1.30;;;;;;;;;;5029236;28;20126;-70
2022/08/07 12:17:07;;;;;;;4.65;1.15;;;;;;;;;;5039265;28;20051;-71
2022/08/07 12:19:45;;;;;;;6.47;1.70;;;;;;;;;;5039959;28;20503;-70
2022/08/07 12:22:22;;;;;;;1.63;1.38;;;;;;;;;;5039672;28;20396;-70
2022/08/07 12:27:59;;;;;;;1.50;1.40;;;;;;;;;;5040754;28;20049;-70
2022/08/07 12:30:30;;;;;;;3.13;1.35;;;;;;;;;;5039990;28;20045;-70
2022/08/07 12:33:08;;;;;;;1.45;1.35;;;;;;;;;;5038539;28;20102;-70
2022/08/07 12:35:35;;;;;;;3.13;1.23;;;;;;;;;;5038803;28;20052;-70
2022/08/07 12:38:02;;;;;;;3.63;1.40;;;;;;;;;;5037324;28;20057;-70
2022/08/07 12:40:31;;;;;;;1.85;1.70;;;;;;;;;;5040107;28;20402;-70
2022/08/07 12:43:00;;;;;;;2.63;1.50;;;;;;;;;;5041123;28;20048;-70
2022/08/07 12:45:33;;;;;;;2.95;1.33;;;;;;;;;;5040270;28;20482;-70
2022/08/07 12:48:34;;;;;;;2.30;1.55;;;;;;;;;;5041094;28;20987;-69
2022/08/07 12:51:11;;;;;;;2.40;1.50;;;;;;;;;;5045096;28;20045;-69
2022/08/07 12:54:02;;;;;;;1.58;1.42;;;;;;;;;;5043772;28;20036;-70
2022/08/07 12:56:35;;;;;;;2.03;1.30;;;;;;;;;;5039707;28;20408;-69
2022/08/07 12:59:06;;;;;;;3.17;1.60;;;;;;;;;;5041965;28;20901;-69
2022/08/07 13:01:41;;;;;;;2.20;1.47;;;;;;;;;;5042955;28;20487;-69
2022/08/07 13:04:27;;;;;;;4.45;1.60;;;;;;;;;;5042739;28;20081;-69
2022/08/07 13:07:16;;;;;;;1.50;1.35;;;;;;;;;;5043347;28;20106;-69
2022/08/07 13:10:11;;;;;;;3.33;1.60;;;;;;;;;;5044205;28;20238;-69
2022/08/07 13:12:55;;;;;;;1.40;1.30;;;;;;;;;;5041382;28;20096;-69
2022/08/07 13:15:33;;;;;;;2.00;1.15;;;;;;;;;;5043453;28;20045;-69
2022/08/07 13:18:10;;;;;;;1.42;1.30;;;;;;;;;;5044091;28;20045;-69
2022/08/07 13:20:45;;;;;;;2.13;1.55;;;;;;;;;;5044207;28;20067;-69
2022/08/07 13:23:45;;;;;;;2.75;1.50;;;;;;;;;;5043916;28;20088;-69
2022/08/07 13:26:33;;;;;;;5.47;1.50;;;;;;;;;;5042345;28;20048;-69
2022/08/07 13:29:17;;;;;;;3.08;1.60;;;;;;;;;;5043536;28;20495;-69
2022/08/07 13:31:52;;;;;;;1.73;1.30;;;;;;;;;;5044070;28;20045;-69
2022/08/07 13:34:42;;;;;;;3.28;1.40;;;;;;;;;;5043209;28;20053;-69
2022/08/07 13:37:49;;;;;;;1.65;1.40;;;;;;;;;;5042634;28;20080;-69
2022/08/07 13:40:35;;;;;;;3.05;1.70;;;;;;;;;;5025553;28;20049;-69
2022/08/07 13:43:05;;;;;;;2.30;1.63;;;;;;;;;;5043012;28;20525;-68
2022/08/07 13:45:33;;;;;;;2.15;1.73;;;;;;;;;;5041929;28;20060;-68
2022/08/07 13:48:01;;;;;;;3.42;1.77;;;;;;;;;;5042821;28;20041;-69
2022/08/07 13:50:28;;;;;;;3.50;1.90;;;;;;;;;;5041726;28;20049;-68
2022/08/07 13:52:55;;;;;;;3.15;1.60;;;;;;;;;;5042161;28;20037;-68
2022/08/07 13:55:22;;;;;;;3.25;1.50;;;;;;;;;;5042864;28;20053;-69
2022/08/07 13:58:59;;;;;;;2.85;1.60;;;;;;;;;;5039833;28;20849;-69
2022/08/07 14:00:49;;;;;;;5.73;1.80;;;;;;;;;;5022890;28;20040;-68
2022/08/07 14:03:18;;;;;;;2.33;1.83;;;;;;;;;;5042655;28;20037;-69
2022/08/07 14:05:45;;;;;;;1.60;1.50;;;;;;;;;;5042862;28;20049;-69
2022/08/07 14:08:11;;;;;;;3.65;1.80;;;;;;;;;;5042497;28;20124;-68
2022/08/07 14:10:40;;;;;;;4.55;2.05;;;;;;;;;;5042917;28;20048;-69
2022/08/07 14:13:07;;;;;;;2.60;2.00;;;;;;;;;;5042966;28;20045;-71
2022/08/07 14:15:41;;;;;;;3.30;1.90;;;;;;;;;;5042332;28;20052;-70
2022/08/07 14:18:16;;;;;;;3.83;2.08;;;;;;;;;;5042001;28;20414;-71
2022/08/07 14:20:46;;;;;;;4.22;1.92;;;;;;;;;;5040492;28;21040;-71
2022/08/07 14:23:19;;;;;;;2.22;2.00;;;;;;;;;;5041876;28;20071;-70
2022/08/07 14:25:53;;;;;;;2.30;2.08;;;;;;;;;;5041359;28;20130;-70
2022/08/07 14:28:20;;;;;;;2.67;1.83;;;;;;;;;;5041084;28;20814;-70
2022/08/07 14:30:47;;;;;;;3.10;2.10;;;;;;;;;;5041586;28;20056;-69
2022/08/07 14:33:15;;;;;;;4.68;2.05;;;;;;;;;;5042654;28;20041;-70
2022/08/07 14:35:41;;;;;;;3.95;2.17;;;;;;;;;;5041284;28;20044;-70
2022/08/07 14:38:07;;;;;;;2.35;1.83;;;;;;;;;;5041045;28;20068;-70
2022/08/07 14:40:35;;;;;;;2.85;2.10;;;;;;;;;;5037780;28;20419;-70
2022/08/07 14:43:11;;;;;;;4.72;2.28;;;;;;;;;;5041741;28;20052;-69
2022/08/07 14:45:47;;;;;;;2.45;1.77;;;;;;;;;;5040836;28;20094;-70
2022/08/07 14:48:20;;;;;;;3.30;2.10;;;;;;;;;;5038747;28;20049;-70
2022/08/07 14:50:51;;;;;;;1.92;1.80;;;;;;;;;;5040270;28;20083;-69
2022/08/07 14:53:18;;;;;;;2.28;2.00;;;;;;;;;;5040251;28;20056;-70
2022/08/07 14:55:46;;;;;;;2.30;2.10;;;;;;;;;;5041090;28;20106;-69
2022/08/07 14:58:14;;;;;;;3.25;2.00;;;;;;;;;;5022390;28;20959;-70
2022/08/07 15:00:42;;;;;;;2.13;1.70;;;;;;;;;;5040143;28;20049;-70
2022/08/07 15:03:10;;;;;;;4.63;2.20;;;;;;;;;;5039071;28;20048;-70
2022/08/07 15:05:38;;;;;;;3.17;1.95;;;;;;;;;;5040919;28;20529;-71
2022/08/07 15:08:11;;;;;;;3.55;1.75;;;;;;;;;;5041057;28;20073;-70
2022/08/07 15:10:41;;;;;;;3.63;2.03;;;;;;;;;;5039911;28;20087;-69
2022/08/07 15:13:16;;;;;;;2.60;2.10;;;;;;;;;;5039017;28;20103;-69
2022/08/07 15:15:46;;;;;;;2.92;2.10;;;;;;;;;;5041111;28;20037;-70
2022/08/07 15:18:18;;;;;;;2.38;1.90;;;;;;;;;;5040717;28;20055;-71
2022/08/07 15:20:46;;;;;;;3.65;2.03;;;;;;;;;;5041466;28;20388;-70
2022/08/07 15:23:19;;;;;;;4.40;2.00;;;;;;;;;;5041651;28;20124;-70
2022/08/07 15:25:54;;;;;;;7.95;2.08;;;;;;;;;;5040002;28;20052;-70